createdAt,value
2016-10-16T00:00:11.108Z,1005.54
2016-10-16T00:00:32.831Z,1005.50
2016-10-16T00:00:54.546Z,1005.63
2016-10-16T00:01:16.267Z,1005.63
2016-10-16T00:01:37.997Z,1005.61
2016-10-16T00:01:59.722Z,1005.56
2016-10-16T00:02:24.186Z,1005.58
2016-10-16T00:02:45.924Z,1005.55
2016-10-16T00:03:07.673Z,1005.52
2016-10-16T00:03:29.387Z,1005.57
2016-10-16T00:03:51.111Z,1005.63
2016-10-16T00:04:12.832Z,1005.57
2016-10-16T00:04:34.549Z,1005.65
2016-10-16T00:04:56.261Z,1005.72
2016-10-16T00:05:17.973Z,1005.66
2016-10-16T00:05:39.692Z,1005.62
2016-10-16T00:06:01.410Z,1005.64
2016-10-16T00:06:23.137Z,1005.56
2016-10-16T00:06:44.847Z,1005.62
2016-10-16T00:07:06.568Z,1005.63
2016-10-16T00:07:28.290Z,1005.61
2016-10-16T00:07:50.088Z,1005.68
2016-10-16T00:08:11.801Z,1005.56
2016-10-16T00:08:33.532Z,1005.57
2016-10-16T00:08:55.252Z,1005.65
2016-10-16T00:09:16.976Z,1005.62
2016-10-16T00:09:38.707Z,1005.62
2016-10-16T00:10:00.417Z,1005.62
2016-10-16T00:10:22.184Z,1005.63
2016-10-16T00:10:43.905Z,1005.58
2016-10-16T00:11:05.623Z,1005.59
2016-10-16T00:11:27.338Z,1005.64
2016-10-16T00:11:49.060Z,1005.66
2016-10-16T00:12:10.782Z,1005.58
2016-10-16T00:12:32.498Z,1005.56
2016-10-16T00:12:54.297Z,1005.65
2016-10-16T00:13:16.017Z,1005.62
2016-10-16T00:13:37.731Z,1005.63
2016-10-16T00:13:59.455Z,1005.65
2016-10-16T00:14:21.177Z,1005.71
2016-10-16T00:14:42.892Z,1005.68
2016-10-16T00:15:04.612Z,1005.66
2016-10-16T00:15:26.329Z,1005.66
2016-10-16T00:15:48.124Z,1005.60
2016-10-16T00:16:09.842Z,1005.51
2016-10-16T00:16:31.568Z,1005.52
2016-10-16T00:16:53.284Z,1005.66
2016-10-16T00:17:15.019Z,1005.74
2016-10-16T00:17:36.738Z,1005.80
2016-10-16T00:17:58.452Z,1005.70
2016-10-16T00:18:20.170Z,1005.74
2016-10-16T00:18:41.891Z,1005.69
2016-10-16T00:19:03.610Z,1005.68
2016-10-16T00:19:25.329Z,1005.61
2016-10-16T00:19:47.051Z,1005.61
2016-10-16T00:20:08.766Z,1005.63
2016-10-16T00:20:30.562Z,1005.59
2016-10-16T00:20:52.284Z,1005.60
2016-10-16T00:21:14.011Z,1005.62
2016-10-16T00:21:35.737Z,1005.64
2016-10-16T00:21:57.453Z,1005.62
2016-10-16T00:22:19.169Z,1005.55
2016-10-16T00:22:40.897Z,1005.60
2016-10-16T00:23:02.615Z,1005.53
2016-10-16T00:23:24.333Z,1005.57
2016-10-16T00:23:46.049Z,1005.61
2016-10-16T00:24:07.764Z,1005.62
2016-10-16T00:24:29.480Z,1005.65
2016-10-16T00:24:51.204Z,1005.70
2016-10-16T00:25:12.919Z,1005.60
2016-10-16T00:25:34.688Z,1005.47
2016-10-16T00:25:56.402Z,1005.56
2016-10-16T00:26:18.131Z,1005.51
2016-10-16T00:26:39.846Z,1005.73
2016-10-16T00:27:01.675Z,1005.75
2016-10-16T00:27:23.400Z,1005.61
2016-10-16T00:27:45.118Z,1005.75
2016-10-16T00:28:06.842Z,1005.72
2016-10-16T00:28:28.629Z,1005.79
2016-10-16T00:28:50.352Z,1005.78
2016-10-16T00:29:12.066Z,1005.72
2016-10-16T00:29:33.781Z,1005.81
2016-10-16T00:29:55.491Z,1005.76
2016-10-16T00:30:17.211Z,1005.74
2016-10-16T00:30:38.931Z,1005.63
2016-10-16T00:31:00.649Z,1005.57
2016-10-16T00:31:22.365Z,1005.64
2016-10-16T00:31:44.083Z,1005.74
2016-10-16T00:32:05.809Z,1005.76
2016-10-16T00:32:27.524Z,1005.65
2016-10-16T00:32:49.251Z,1005.79
2016-10-16T00:33:10.992Z,1005.74
2016-10-16T00:33:37.491Z,1005.44
2016-10-16T00:33:59.214Z,1005.52
2016-10-16T00:34:20.932Z,1005.77
2016-10-16T00:34:42.652Z,1005.78
2016-10-16T00:35:04.372Z,1005.71
2016-10-16T00:35:26.091Z,1005.77
2016-10-16T00:35:47.810Z,1005.76
2016-10-16T00:36:09.543Z,1005.72
2016-10-16T00:36:31.260Z,1005.66
2016-10-16T00:36:52.981Z,1005.57
2016-10-16T00:37:14.707Z,1005.84
2016-10-16T00:37:36.422Z,1005.97
2016-10-16T00:37:58.142Z,1005.92
2016-10-16T00:38:19.862Z,1005.94
2016-10-16T00:38:41.577Z,1005.78
2016-10-16T00:39:03.294Z,1005.66
2016-10-16T00:39:25.009Z,1005.69
2016-10-16T00:39:46.727Z,1005.67
2016-10-16T00:40:08.444Z,1005.70
2016-10-16T00:40:30.236Z,1005.68
2016-10-16T00:40:51.955Z,1006.00
2016-10-16T00:41:13.680Z,1005.98
2016-10-16T00:41:35.402Z,1006.04
2016-10-16T00:41:57.120Z,1006.15
2016-10-16T00:42:18.841Z,1006.00
2016-10-16T00:42:40.558Z,1005.91
2016-10-16T00:43:02.273Z,1005.95
2016-10-16T00:43:23.998Z,1005.89
2016-10-16T00:43:45.719Z,1005.96
2016-10-16T00:44:07.436Z,1005.82
2016-10-16T00:44:29.167Z,1005.78
2016-10-16T00:44:50.891Z,1005.77
2016-10-16T00:45:12.606Z,1005.83
2016-10-16T00:45:34.325Z,1005.87
2016-10-16T00:45:56.050Z,1005.85
2016-10-16T00:46:17.785Z,1005.92
2016-10-16T00:46:39.506Z,1005.83
2016-10-16T00:47:01.240Z,1005.62
2016-10-16T00:47:22.958Z,1005.72
2016-10-16T00:47:44.674Z,1005.82
2016-10-16T00:48:06.439Z,1005.71
2016-10-16T00:48:28.105Z,1005.88
2016-10-16T00:48:49.827Z,1005.91
2016-10-16T00:49:11.562Z,1006.09
2016-10-16T00:49:33.279Z,1006.01
2016-10-16T00:49:54.993Z,1005.90
2016-10-16T00:50:16.711Z,1005.86
2016-10-16T00:50:38.426Z,1005.86
2016-10-16T00:51:00.157Z,1005.86
2016-10-16T00:51:21.874Z,1005.83
2016-10-16T00:51:43.593Z,1005.82
2016-10-16T00:52:05.307Z,1006.01
2016-10-16T00:52:27.039Z,1005.89
2016-10-16T00:52:48.751Z,1005.91
2016-10-16T00:53:10.470Z,1005.92
2016-10-16T00:53:32.188Z,1005.98
2016-10-16T00:53:53.922Z,1005.98
2016-10-16T00:54:15.666Z,1006.00
2016-10-16T00:54:37.393Z,1005.94
2016-10-16T00:54:59.110Z,1005.99
2016-10-16T00:55:20.827Z,1005.96
2016-10-16T00:55:42.542Z,1005.95
2016-10-16T00:56:04.268Z,1005.97
2016-10-16T00:56:26.011Z,1005.94
2016-10-16T00:56:47.708Z,1005.97
2016-10-16T00:57:09.455Z,1005.89
2016-10-16T00:57:31.178Z,1005.92
2016-10-16T00:57:52.899Z,1005.99
2016-10-16T00:58:14.615Z,1006.04
2016-10-16T00:58:36.330Z,1005.89
2016-10-16T00:58:58.049Z,1005.90
2016-10-16T00:59:19.787Z,1005.95
2016-10-16T00:59:41.493Z,1005.96
2016-10-16T01:00:03.244Z,1006.02
2016-10-16T01:00:25.042Z,1005.92
2016-10-16T01:00:46.754Z,1005.98
2016-10-16T01:01:08.476Z,1006.01
2016-10-16T01:01:30.192Z,1006.01
2016-10-16T01:01:51.917Z,1005.98
2016-10-16T01:02:13.634Z,1005.93
2016-10-16T01:02:35.360Z,1005.79
2016-10-16T01:02:57.155Z,1005.67
2016-10-16T01:03:18.869Z,1005.64
2016-10-16T01:03:40.580Z,1005.62
2016-10-16T01:04:02.301Z,1006.00
2016-10-16T01:04:24.017Z,1006.01
2016-10-16T01:04:45.735Z,1005.97
2016-10-16T01:05:07.459Z,1005.73
2016-10-16T01:05:29.172Z,1005.82
2016-10-16T01:05:50.895Z,1005.99
2016-10-16T01:06:12.622Z,1006.02
2016-10-16T01:06:34.352Z,1005.94
2016-10-16T01:06:56.066Z,1005.86
2016-10-16T01:07:17.784Z,1005.91
2016-10-16T01:07:39.500Z,1005.99
2016-10-16T01:08:01.214Z,1005.96
2016-10-16T01:08:22.932Z,1006.03
2016-10-16T01:08:44.658Z,1006.04
2016-10-16T01:09:06.375Z,1005.98
2016-10-16T01:09:28.095Z,1005.91
2016-10-16T01:09:49.813Z,1005.86
2016-10-16T01:10:11.522Z,1005.97
2016-10-16T01:10:33.243Z,1005.91
2016-10-16T01:10:54.970Z,1006.01
2016-10-16T01:11:16.691Z,1005.94
2016-10-16T01:11:38.410Z,1005.94
2016-10-16T01:12:00.124Z,1005.94
2016-10-16T01:12:21.929Z,1005.96
2016-10-16T01:12:43.647Z,1005.94
2016-10-16T01:13:05.362Z,1005.97
2016-10-16T01:13:27.077Z,1005.98
2016-10-16T01:13:48.799Z,1005.96
2016-10-16T01:14:10.512Z,1005.90
2016-10-16T01:14:32.227Z,1005.94
2016-10-16T01:14:53.946Z,1005.93
2016-10-16T01:15:15.683Z,1005.73
2016-10-16T01:15:37.400Z,1005.79
2016-10-16T01:15:59.207Z,1005.87
2016-10-16T01:16:20.942Z,1005.83
2016-10-16T01:16:43.653Z,1006.00
2016-10-16T01:17:05.374Z,1005.91
2016-10-16T01:17:27.086Z,1005.95
2016-10-16T01:17:48.802Z,1005.95
2016-10-16T01:18:10.513Z,1005.92
2016-10-16T01:18:32.314Z,1005.94
2016-10-16T01:18:54.031Z,1005.97
2016-10-16T01:19:15.753Z,1005.92
2016-10-16T01:19:37.525Z,1005.95
2016-10-16T01:19:59.250Z,1005.95
2016-10-16T01:20:20.967Z,1005.91
2016-10-16T01:20:42.680Z,1005.94
2016-10-16T01:21:04.408Z,1005.88
2016-10-16T01:21:26.225Z,1005.90
2016-10-16T01:21:47.942Z,1005.87
2016-10-16T01:22:09.663Z,1005.93
2016-10-16T01:22:31.466Z,1005.96
2016-10-16T01:22:53.188Z,1006.03
2016-10-16T01:23:14.905Z,1005.96
2016-10-16T01:23:36.628Z,1005.95
2016-10-16T01:23:58.438Z,1005.94
2016-10-16T01:24:20.154Z,1005.99
2016-10-16T01:24:41.868Z,1005.98
2016-10-16T01:25:03.595Z,1005.97
2016-10-16T01:25:25.318Z,1005.91
2016-10-16T01:25:47.030Z,1005.97
2016-10-16T01:26:08.764Z,1006.02
2016-10-16T01:26:30.494Z,1005.92
2016-10-16T01:26:52.234Z,1005.91
2016-10-16T01:27:13.960Z,1005.96
2016-10-16T01:27:35.680Z,1005.97
2016-10-16T01:27:57.397Z,1005.96
2016-10-16T01:28:19.112Z,1005.91
2016-10-16T01:28:40.849Z,1005.98
2016-10-16T01:29:02.566Z,1005.97
2016-10-16T01:29:24.292Z,1005.93
2016-10-16T01:29:46.011Z,1005.94
2016-10-16T01:30:07.727Z,1005.96
2016-10-16T01:30:29.443Z,1005.98
2016-10-16T01:30:51.162Z,1006.01
2016-10-16T01:31:12.873Z,1005.94
2016-10-16T01:31:34.591Z,1005.92
2016-10-16T01:31:56.303Z,1005.95
2016-10-16T01:32:18.024Z,1005.96
2016-10-16T01:32:39.806Z,1005.93
2016-10-16T01:33:01.526Z,1006.02
2016-10-16T01:33:23.244Z,1006.05
2016-10-16T01:33:44.964Z,1006.05
2016-10-16T01:34:06.683Z,1006.05
2016-10-16T01:34:28.451Z,1006.07
2016-10-16T01:34:50.175Z,1006.02
2016-10-16T01:35:11.896Z,1006.04
2016-10-16T01:35:33.618Z,1005.98
2016-10-16T01:35:55.338Z,1006.14
2016-10-16T01:36:17.054Z,1006.03
2016-10-16T01:36:38.823Z,1006.04
2016-10-16T01:37:00.539Z,1006.01
2016-10-16T01:37:22.254Z,1005.90
2016-10-16T01:37:43.969Z,1005.91
2016-10-16T01:38:05.684Z,1005.97
2016-10-16T01:38:27.400Z,1006.05
2016-10-16T01:38:49.123Z,1006.07
2016-10-16T01:39:10.838Z,1006.03
2016-10-16T01:39:32.636Z,1005.89
2016-10-16T01:39:54.359Z,1006.09
2016-10-16T01:40:16.068Z,1006.08
2016-10-16T01:40:37.801Z,1006.15
2016-10-16T01:40:59.516Z,1006.11
2016-10-16T01:41:21.233Z,1006.09
2016-10-16T01:41:42.944Z,1006.13
2016-10-16T01:42:04.794Z,1006.08
2016-10-16T01:42:26.516Z,1006.09
2016-10-16T01:42:48.231Z,1006.11
2016-10-16T01:43:09.948Z,1006.12
2016-10-16T01:43:31.668Z,1006.14
2016-10-16T01:43:53.382Z,1006.12
2016-10-16T01:44:15.124Z,1006.08
2016-10-16T01:44:36.924Z,1006.02
2016-10-16T01:44:58.636Z,1006.04
2016-10-16T01:45:20.361Z,1006.14
2016-10-16T01:45:42.080Z,1006.15
2016-10-16T01:46:03.795Z,1006.15
2016-10-16T01:46:25.582Z,1006.16
2016-10-16T01:46:47.298Z,1006.11
2016-10-16T01:47:09.011Z,1006.15
2016-10-16T01:47:30.749Z,1006.10
2016-10-16T01:47:52.469Z,1006.12
2016-10-16T01:48:14.200Z,1006.07
2016-10-16T01:48:35.919Z,1006.05
2016-10-16T01:48:57.649Z,1006.15
2016-10-16T01:49:19.365Z,1006.08
2016-10-16T01:49:41.078Z,1006.01
2016-10-16T01:50:02.798Z,1006.05
2016-10-16T01:50:24.517Z,1006.12
2016-10-16T01:50:46.243Z,1006.12
2016-10-16T01:51:08.956Z,1006.12
2016-10-16T01:51:30.676Z,1006.09
2016-10-16T01:51:52.397Z,1006.02
2016-10-16T01:52:14.109Z,1006.05
2016-10-16T01:52:35.826Z,1005.95
2016-10-16T01:52:57.548Z,1005.97
2016-10-16T01:53:19.267Z,1006.05
2016-10-16T01:53:40.984Z,1006.03
2016-10-16T01:54:02.704Z,1006.05
2016-10-16T01:54:24.432Z,1006.10
2016-10-16T01:54:46.149Z,1006.17
2016-10-16T01:55:07.868Z,1006.28
2016-10-16T01:55:29.588Z,1006.27
2016-10-16T01:55:51.316Z,1006.25
2016-10-16T01:56:13.035Z,1006.14
2016-10-16T01:56:34.754Z,1006.13
2016-10-16T01:56:56.599Z,1006.25
2016-10-16T01:57:18.310Z,1006.28
2016-10-16T01:57:40.025Z,1006.20
2016-10-16T01:58:01.745Z,1006.37
2016-10-16T01:58:23.464Z,1006.30
2016-10-16T01:58:45.185Z,1006.23
2016-10-16T01:59:06.906Z,1006.22
2016-10-16T01:59:28.624Z,1006.26
2016-10-16T01:59:50.346Z,1006.21
2016-10-16T02:00:12.065Z,1006.17
2016-10-16T02:00:33.783Z,1006.17
2016-10-16T02:00:55.497Z,1006.18
2016-10-16T02:01:17.221Z,1006.17
2016-10-16T02:01:38.940Z,1006.08
2016-10-16T02:02:00.661Z,1006.08
2016-10-16T02:02:22.378Z,1006.06
2016-10-16T02:02:44.105Z,1006.05
2016-10-16T02:03:05.820Z,1006.01
2016-10-16T02:03:27.535Z,1006.09
2016-10-16T02:03:49.252Z,1006.16
2016-10-16T02:04:15.741Z,1006.09
2016-10-16T02:04:37.462Z,1006.08
2016-10-16T02:04:59.179Z,1006.05
2016-10-16T02:05:20.897Z,1006.16
2016-10-16T02:05:42.615Z,1006.18
2016-10-16T02:06:04.334Z,1006.07
2016-10-16T02:06:26.058Z,1006.23
2016-10-16T02:06:47.779Z,1006.35
2016-10-16T02:07:09.498Z,1006.18
2016-10-16T02:07:31.212Z,1006.17
2016-10-16T02:07:52.942Z,1006.17
2016-10-16T02:08:14.666Z,1006.19
2016-10-16T02:08:36.379Z,1006.15
2016-10-16T02:08:58.094Z,1006.19
2016-10-16T02:09:19.816Z,1006.19
2016-10-16T02:09:41.539Z,1006.24
2016-10-16T02:10:03.262Z,1006.07
2016-10-16T02:10:24.988Z,1006.08
2016-10-16T02:10:46.705Z,1006.11
2016-10-16T02:11:08.423Z,1006.13
2016-10-16T02:11:30.146Z,1006.16
2016-10-16T02:11:51.865Z,1006.17
2016-10-16T02:12:13.583Z,1006.09
2016-10-16T02:12:35.301Z,1006.05
2016-10-16T02:12:57.025Z,1006.01
2016-10-16T02:13:18.741Z,1006.10
2016-10-16T02:13:40.468Z,1006.12
2016-10-16T02:14:02.174Z,1006.18
2016-10-16T02:14:23.892Z,1006.17
2016-10-16T02:14:45.691Z,1006.22
2016-10-16T02:15:07.408Z,1006.20
2016-10-16T02:15:29.131Z,1006.16
2016-10-16T02:15:50.856Z,1006.22
2016-10-16T02:16:12.577Z,1006.15
2016-10-16T02:16:34.315Z,1006.14
2016-10-16T02:16:56.046Z,1006.10
2016-10-16T02:17:17.768Z,1006.10
2016-10-16T02:17:39.485Z,1006.04
2016-10-16T02:18:01.207Z,1006.03
2016-10-16T02:18:22.927Z,1006.07
2016-10-16T02:18:44.643Z,1006.05
2016-10-16T02:19:06.362Z,1006.02
2016-10-16T02:19:28.079Z,1006.07
2016-10-16T02:19:49.796Z,1006.08
2016-10-16T02:20:11.514Z,1006.12
2016-10-16T02:20:33.229Z,1006.11
2016-10-16T02:20:55.025Z,1006.07
2016-10-16T02:21:16.743Z,1006.06
2016-10-16T02:21:38.485Z,1006.19
2016-10-16T02:22:00.205Z,1006.10
2016-10-16T02:22:21.925Z,1006.09
2016-10-16T02:22:43.644Z,1006.19
2016-10-16T02:23:05.462Z,1006.26
2016-10-16T02:23:27.178Z,1006.18
2016-10-16T02:23:48.907Z,1006.05
2016-10-16T02:24:10.621Z,1006.18
2016-10-16T02:24:32.343Z,1006.16
2016-10-16T02:24:54.062Z,1006.17
2016-10-16T02:25:15.781Z,1006.15
2016-10-16T02:25:37.515Z,1006.14
2016-10-16T02:25:59.230Z,1006.20
2016-10-16T02:26:20.948Z,1006.14
2016-10-16T02:26:42.669Z,1006.09
2016-10-16T02:27:04.453Z,1006.00
2016-10-16T02:27:26.170Z,1005.98
2016-10-16T02:27:47.892Z,1005.97
2016-10-16T02:28:09.606Z,1006.03
2016-10-16T02:28:31.319Z,1006.10
2016-10-16T02:28:53.040Z,1006.07
2016-10-16T02:29:14.764Z,1006.17
2016-10-16T02:29:36.485Z,1005.98
2016-10-16T02:29:58.326Z,1005.99
2016-10-16T02:30:20.049Z,1006.00
2016-10-16T02:30:41.765Z,1006.09
2016-10-16T02:31:06.075Z,1006.13
2016-10-16T02:31:27.945Z,1006.10
2016-10-16T02:31:49.658Z,1006.01
2016-10-16T02:32:11.377Z,1006.11
2016-10-16T02:32:33.094Z,1006.11
2016-10-16T02:32:54.822Z,1006.12
2016-10-16T02:33:16.627Z,1006.22
2016-10-16T02:33:38.343Z,1006.28
2016-10-16T02:34:00.058Z,1006.33
2016-10-16T02:34:21.775Z,1006.21
2016-10-16T02:34:48.268Z,1006.24
2016-10-16T02:35:09.982Z,1006.19
2016-10-16T02:35:31.700Z,1006.22
2016-10-16T02:35:53.420Z,1006.17
2016-10-16T02:36:15.137Z,1006.16
2016-10-16T02:36:36.848Z,1006.03
2016-10-16T02:36:58.650Z,1005.98
2016-10-16T02:37:20.364Z,1006.05
2016-10-16T02:37:42.092Z,1006.10
2016-10-16T02:38:03.827Z,1006.02
2016-10-16T02:38:25.548Z,1006.14
2016-10-16T02:38:47.260Z,1006.22
2016-10-16T02:39:08.988Z,1006.23
2016-10-16T02:39:30.706Z,1006.17
2016-10-16T02:39:52.502Z,1006.14
2016-10-16T02:40:14.221Z,1006.13
2016-10-16T02:40:35.936Z,1006.05
2016-10-16T02:40:57.653Z,1006.18
2016-10-16T02:41:19.366Z,1006.15
2016-10-16T02:41:41.084Z,1006.12
2016-10-16T02:42:02.880Z,1006.18
2016-10-16T02:42:24.602Z,1006.14
2016-10-16T02:42:46.317Z,1006.10
2016-10-16T02:43:08.033Z,1006.10
2016-10-16T02:43:29.777Z,1006.07
2016-10-16T02:43:51.493Z,1006.07
2016-10-16T02:44:13.289Z,1006.13
2016-10-16T02:44:35.006Z,1006.14
2016-10-16T02:44:56.723Z,1006.14
2016-10-16T02:45:18.441Z,1006.12
2016-10-16T02:45:40.156Z,1006.00
2016-10-16T02:46:01.873Z,1006.04
2016-10-16T02:46:23.591Z,1006.06
2016-10-16T02:46:45.303Z,1006.03
2016-10-16T02:47:07.019Z,1006.04
2016-10-16T02:47:31.323Z,1006.06
2016-10-16T02:47:53.039Z,1006.05
2016-10-16T02:48:14.757Z,1006.02
2016-10-16T02:48:36.471Z,1006.02
2016-10-16T02:48:58.197Z,1006.08
2016-10-16T02:49:19.917Z,1006.05
2016-10-16T02:49:41.648Z,1005.99
2016-10-16T02:50:03.365Z,1006.03
2016-10-16T02:50:25.161Z,1005.97
2016-10-16T02:50:46.886Z,1006.03
2016-10-16T02:51:08.608Z,1006.01
2016-10-16T02:51:30.324Z,1005.91
2016-10-16T02:51:52.041Z,1006.00
2016-10-16T02:52:13.761Z,1006.00
2016-10-16T02:52:35.478Z,1005.96
2016-10-16T02:52:57.189Z,1005.96
2016-10-16T02:53:18.908Z,1006.01
2016-10-16T02:53:45.400Z,1005.90
2016-10-16T02:54:07.129Z,1005.99
2016-10-16T02:54:28.927Z,1006.01
2016-10-16T02:54:50.646Z,1006.02
2016-10-16T02:55:13.365Z,1006.03
2016-10-16T02:55:35.073Z,1005.97
2016-10-16T02:55:56.900Z,1005.95
2016-10-16T02:56:18.619Z,1006.00
2016-10-16T02:56:40.335Z,1005.95
2016-10-16T02:57:02.053Z,1006.01
2016-10-16T02:57:23.774Z,1005.99
2016-10-16T02:57:45.571Z,1006.06
2016-10-16T02:58:07.289Z,1006.03
2016-10-16T02:58:29.004Z,1006.05
2016-10-16T02:58:50.718Z,1006.11
2016-10-16T02:59:12.510Z,1006.07
2016-10-16T02:59:34.223Z,1006.10
2016-10-16T02:59:55.938Z,1006.07
2016-10-16T03:00:17.656Z,1006.17
2016-10-16T03:00:39.384Z,1006.03
2016-10-16T03:01:01.100Z,1006.01
2016-10-16T03:01:22.903Z,1006.09
2016-10-16T03:01:44.627Z,1006.14
2016-10-16T03:02:06.342Z,1006.12
2016-10-16T03:02:28.060Z,1006.16
2016-10-16T03:02:49.854Z,1006.14
2016-10-16T03:03:11.580Z,1006.12
2016-10-16T03:03:33.302Z,1006.17
2016-10-16T03:03:55.015Z,1006.09
2016-10-16T03:04:16.730Z,1006.13
2016-10-16T03:04:38.532Z,1006.19
2016-10-16T03:05:00.252Z,1006.20
2016-10-16T03:05:21.969Z,1006.13
2016-10-16T03:05:43.692Z,1006.13
2016-10-16T03:06:05.409Z,1006.20
2016-10-16T03:06:27.132Z,1006.11
2016-10-16T03:06:48.860Z,1006.12
2016-10-16T03:07:10.576Z,1006.08
2016-10-16T03:07:32.296Z,1006.14
2016-10-16T03:07:54.015Z,1006.08
2016-10-16T03:08:15.810Z,1006.08
2016-10-16T03:08:37.529Z,1006.05
2016-10-16T03:09:04.015Z,1006.09
2016-10-16T03:09:25.739Z,1006.15
2016-10-16T03:09:47.461Z,1006.12
2016-10-16T03:10:09.261Z,1006.06
2016-10-16T03:10:30.976Z,1006.07
2016-10-16T03:10:52.689Z,1006.14
2016-10-16T03:11:14.409Z,1006.13
2016-10-16T03:11:36.201Z,1006.12
2016-10-16T03:11:57.928Z,1006.10
2016-10-16T03:12:19.645Z,1006.08
2016-10-16T03:12:41.367Z,1006.05
2016-10-16T03:13:03.080Z,1006.04
2016-10-16T03:13:24.794Z,1006.05
2016-10-16T03:13:46.513Z,1006.01
2016-10-16T03:14:08.230Z,1005.90
2016-10-16T03:14:29.959Z,1005.78
2016-10-16T03:14:51.679Z,1005.82
2016-10-16T03:15:13.481Z,1005.96
2016-10-16T03:15:35.200Z,1006.07
2016-10-16T03:15:56.920Z,1006.09
2016-10-16T03:16:18.642Z,1006.09
2016-10-16T03:16:40.442Z,1005.94
2016-10-16T03:17:02.162Z,1005.99
2016-10-16T03:17:23.894Z,1005.97
2016-10-16T03:17:45.607Z,1006.11
2016-10-16T03:18:07.334Z,1006.00
2016-10-16T03:18:29.049Z,1006.01
2016-10-16T03:18:50.767Z,1006.00
2016-10-16T03:19:12.488Z,1006.04
2016-10-16T03:19:34.219Z,1006.20
2016-10-16T03:19:55.935Z,1006.11
2016-10-16T03:20:17.667Z,1006.06
2016-10-16T03:20:39.389Z,1006.11
2016-10-16T03:21:01.104Z,1006.29
2016-10-16T03:21:22.819Z,1006.22
2016-10-16T03:21:44.541Z,1006.13
2016-10-16T03:22:06.253Z,1006.16
2016-10-16T03:22:27.972Z,1006.20
2016-10-16T03:22:49.688Z,1006.23
2016-10-16T03:23:11.402Z,1006.29
2016-10-16T03:23:33.195Z,1006.24
2016-10-16T03:23:54.919Z,1006.11
2016-10-16T03:24:16.636Z,1006.27
2016-10-16T03:24:38.349Z,1006.31
2016-10-16T03:25:00.153Z,1006.25
2016-10-16T03:25:21.890Z,1006.23
2016-10-16T03:25:43.608Z,1006.19
2016-10-16T03:26:05.327Z,1006.26
2016-10-16T03:26:27.126Z,1006.37
2016-10-16T03:26:48.841Z,1006.30
2016-10-16T03:27:10.557Z,1006.30
2016-10-16T03:27:32.276Z,1006.28
2016-10-16T03:27:53.996Z,1006.24
2016-10-16T03:28:15.714Z,1006.23
2016-10-16T03:28:37.436Z,1006.20
2016-10-16T03:28:59.159Z,1006.28
2016-10-16T03:29:20.873Z,1006.12
2016-10-16T03:29:42.665Z,1006.30
2016-10-16T03:30:04.384Z,1006.41
2016-10-16T03:30:26.104Z,1006.40
2016-10-16T03:30:47.820Z,1006.23
2016-10-16T03:31:09.539Z,1006.37
2016-10-16T03:31:31.256Z,1006.27
2016-10-16T03:31:53.060Z,1006.19
2016-10-16T03:32:14.781Z,1006.23
2016-10-16T03:32:36.493Z,1006.15
2016-10-16T03:32:58.213Z,1006.22
2016-10-16T03:33:19.930Z,1006.21
2016-10-16T03:33:41.664Z,1006.18
2016-10-16T03:34:03.380Z,1006.15
2016-10-16T03:34:25.102Z,1006.13
2016-10-16T03:34:46.818Z,1006.03
2016-10-16T03:35:08.615Z,1006.10
2016-10-16T03:35:30.332Z,1006.19
2016-10-16T03:35:52.047Z,1006.26
2016-10-16T03:36:13.762Z,1006.31
2016-10-16T03:36:35.480Z,1006.18
2016-10-16T03:36:57.274Z,1006.26
2016-10-16T03:37:18.987Z,1006.26
2016-10-16T03:37:40.709Z,1006.18
2016-10-16T03:38:02.427Z,1006.12
2016-10-16T03:38:24.137Z,1006.20
2016-10-16T03:38:45.935Z,1006.29
2016-10-16T03:39:07.658Z,1006.33
2016-10-16T03:39:29.376Z,1006.33
2016-10-16T03:39:51.088Z,1006.34
2016-10-16T03:40:12.803Z,1006.31
2016-10-16T03:40:34.520Z,1006.30
2016-10-16T03:40:56.386Z,1006.35
2016-10-16T03:41:18.096Z,1006.27
2016-10-16T03:41:39.810Z,1006.35
2016-10-16T03:42:01.520Z,1006.32
2016-10-16T03:42:23.251Z,1006.26
2016-10-16T03:42:45.057Z,1006.24
2016-10-16T03:43:06.773Z,1006.24
2016-10-16T03:43:28.493Z,1006.28
2016-10-16T03:43:50.205Z,1006.30
2016-10-16T03:44:11.920Z,1006.25
2016-10-16T03:44:33.633Z,1006.18
2016-10-16T03:44:55.355Z,1006.06
2016-10-16T03:45:17.067Z,1006.18
2016-10-16T03:45:38.795Z,1006.27
2016-10-16T03:46:00.513Z,1006.30
2016-10-16T03:46:22.240Z,1006.25
2016-10-16T03:46:43.965Z,1006.28
2016-10-16T03:47:05.675Z,1006.30
2016-10-16T03:47:27.402Z,1006.45
2016-10-16T03:47:49.115Z,1006.53
2016-10-16T03:48:10.836Z,1006.38
2016-10-16T03:48:32.641Z,1006.32
2016-10-16T03:48:54.363Z,1006.29
2016-10-16T03:49:16.078Z,1006.40
2016-10-16T03:49:37.800Z,1006.43
2016-10-16T03:49:59.519Z,1006.42
2016-10-16T03:50:21.333Z,1006.42
2016-10-16T03:50:43.055Z,1006.37
2016-10-16T03:51:04.773Z,1006.34
2016-10-16T03:51:26.513Z,1006.24
2016-10-16T03:51:48.228Z,1006.36
2016-10-16T03:52:09.941Z,1006.33
2016-10-16T03:52:31.653Z,1006.32
2016-10-16T03:52:53.371Z,1006.30
2016-10-16T03:53:15.170Z,1006.32
2016-10-16T03:53:36.889Z,1006.30
2016-10-16T03:53:58.614Z,1006.28
2016-10-16T03:54:20.339Z,1006.31
2016-10-16T03:54:42.059Z,1006.29
2016-10-16T03:55:03.858Z,1006.29
2016-10-16T03:55:25.584Z,1006.38
2016-10-16T03:55:47.300Z,1006.31
2016-10-16T03:56:09.013Z,1006.32
2016-10-16T03:56:30.772Z,1006.36
2016-10-16T03:56:52.498Z,1006.33
2016-10-16T03:57:14.215Z,1006.31
2016-10-16T03:57:35.930Z,1006.26
2016-10-16T03:57:57.662Z,1006.36
2016-10-16T03:58:19.377Z,1006.32
2016-10-16T03:58:41.099Z,1006.34
2016-10-16T03:59:02.818Z,1006.40
2016-10-16T03:59:24.537Z,1006.38
2016-10-16T03:59:46.257Z,1006.33
2016-10-16T04:00:07.968Z,1006.28
2016-10-16T04:00:29.695Z,1006.32
2016-10-16T04:00:51.412Z,1006.38
2016-10-16T04:01:13.136Z,1006.30
2016-10-16T04:01:34.851Z,1006.23
2016-10-16T04:01:56.581Z,1006.09
2016-10-16T04:02:18.372Z,1006.15
2016-10-16T04:02:40.084Z,1006.46
2016-10-16T04:03:01.818Z,1006.64
2016-10-16T04:03:23.530Z,1006.55
2016-10-16T04:03:45.251Z,1006.57
2016-10-16T04:04:07.044Z,1006.37
2016-10-16T04:04:28.809Z,1006.41
2016-10-16T04:04:50.515Z,1006.34
2016-10-16T04:05:12.296Z,1006.10
2016-10-16T04:05:34.014Z,1006.15
2016-10-16T04:05:55.740Z,1006.17
2016-10-16T04:06:17.453Z,1006.30
2016-10-16T04:06:39.237Z,1006.30
2016-10-16T04:07:00.956Z,1006.17
2016-10-16T04:07:22.687Z,1006.34
2016-10-16T04:07:44.404Z,1006.41
2016-10-16T04:08:06.195Z,1006.30
2016-10-16T04:08:27.915Z,1006.37
2016-10-16T04:08:49.644Z,1006.34
2016-10-16T04:09:11.357Z,1006.49
2016-10-16T04:09:33.077Z,1006.44
2016-10-16T04:09:54.799Z,1006.26
2016-10-16T04:10:16.512Z,1006.12
2016-10-16T04:10:38.224Z,1006.14
2016-10-16T04:10:59.943Z,1006.25
2016-10-16T04:11:21.763Z,1006.37
2016-10-16T04:11:43.483Z,1006.31
2016-10-16T04:12:05.199Z,1006.39
2016-10-16T04:12:26.994Z,1006.38
2016-10-16T04:12:48.707Z,1006.40
2016-10-16T04:13:10.430Z,1006.49
2016-10-16T04:13:32.169Z,1006.40
2016-10-16T04:13:53.987Z,1006.57
2016-10-16T04:14:15.708Z,1006.42
2016-10-16T04:14:37.433Z,1006.42
2016-10-16T04:14:59.154Z,1006.59
2016-10-16T04:15:20.871Z,1006.56
2016-10-16T04:15:42.586Z,1006.32
2016-10-16T04:16:04.387Z,1006.38
2016-10-16T04:16:26.105Z,1006.31
2016-10-16T04:16:47.827Z,1006.57
2016-10-16T04:17:09.550Z,1006.35
2016-10-16T04:17:31.350Z,1006.42
2016-10-16T04:17:53.069Z,1006.54
2016-10-16T04:18:14.787Z,1006.58
2016-10-16T04:18:36.501Z,1006.49
2016-10-16T04:18:58.223Z,1006.52
2016-10-16T04:19:24.709Z,1006.44
2016-10-16T04:19:46.427Z,1006.39
2016-10-16T04:20:08.157Z,1006.40
2016-10-16T04:20:29.870Z,1006.32
2016-10-16T04:20:51.584Z,1006.39
2016-10-16T04:21:13.297Z,1006.41
2016-10-16T04:21:35.051Z,1006.40
2016-10-16T04:21:56.767Z,1006.52
2016-10-16T04:22:18.485Z,1006.65
2016-10-16T04:22:40.290Z,1006.59
2016-10-16T04:23:02.008Z,1006.48
2016-10-16T04:23:23.723Z,1006.56